KBWD/BWD METAR and TAF weather

Enter ICAO airport designator
Station Type Date Time Source
KBWD METAR 2019/06/24 23:15 UTC NOAA

KBWD 242315Z AUTO 13012G16KT 10SM CLR 28/22 A2984 RMK AO1


Station Type Date Time Source
KBWD Decoded METAR 2019/06/24 23:15 UTC NOAA

Brownwood, Brownwood Regional Airport, TX, United States (KBWD) 31-48N 098-57W
Jun 24, 2019 - 07:15 PM EDT / 2019.06.24 2315 UTC
Wind: from the SE (130 degrees) at 14 MPH (12 KT) gusting to 18 MPH (16 KT):0
Visibility: 10 mile(s):0
Sky conditions: clear
Temperature: 82 F (28 C)
Dew Point: 71 F (22 C)
Relative Humidity: 69%
Pressure (altimeter): 29.84 in. Hg (1010 hPa)
ob: KBWD 242315Z AUTO 13012G16KT 10SM CLR 28/22 A2984 RMK AO1
cycle: 23

Station Type Date Time Source
KBWD TAF UTC NOAA

Error!

Example: see airport list